University of Wyoming, Wyoming
Current Conditions -  °F | °C
As of 12:53 AM on Sunday 26 Oct 2014 (Local Time) from KLAR Reporting Station
Clear Clear  
Wind Chill: 43°   Ceiling: Unl
Heat Index: 49°   Visibility: 10mi
Dew Point: 22°   Wind: 16mph
Humidity: 35%   Direction: 200°SSW
Pressure: 30.04"   Gusts: NA
Location:  41.4218°N, 105.605°W
Report Text: KLAR 260653Z AUTO 20014KT 10SM CLR 09/M06 A3004 RMK AO2 SLP072 T00941056 402220000
Loading
Personal Weather Stations






























Interactive Weather Map New forecast layout! Learn more

10-Day Weather Forecast

Advertisements
Track Severe Weather on mobile